createdAt,value
2022-12-19T00:02:04.541Z,102891.03
2022-12-19T00:04:33.998Z,102884.47
2022-12-19T00:07:03.419Z,102887.47
2022-12-19T00:09:32.753Z,102879.75
2022-12-19T00:12:04.380Z,102879.06
2022-12-19T00:14:35.080Z,102872.06
2022-12-19T00:17:04.597Z,102872.38
2022-12-19T00:19:34.521Z,102866.44
2022-12-19T00:22:08.278Z,102866.66
2022-12-19T00:24:40.269Z,102871.78
2022-12-19T00:27:09.670Z,102870.78
2022-12-19T00:29:40.351Z,102856.97
2022-12-19T00:32:09.896Z,102866.44
2022-12-19T00:34:44.548Z,102865.59
2022-12-19T00:37:14.103Z,102863.25
2022-12-19T00:39:43.230Z,102858.03
2022-12-19T00:42:12.831Z,102852.06
2022-12-19T00:44:43.332Z,102845.88
2022-12-19T00:47:12.796Z,102849.25
2022-12-19T00:49:41.931Z,102852.97
2022-12-19T00:52:11.720Z,102848.16
2022-12-19T00:54:40.940Z,102840.47
2022-12-19T00:57:10.761Z,102835.78
2022-12-19T00:59:39.909Z,102826.28
2022-12-19T01:02:10.981Z,102826.06
2022-12-19T01:04:41.997Z,102823.31
2022-12-19T01:07:15.526Z,102827.91
2022-12-19T01:09:45.007Z,102822.69
2022-12-19T01:12:32.565Z,102820.97
2022-12-19T01:15:04.375Z,102815.06
2022-12-19T01:17:37.745Z,102814.28
2022-12-19T01:20:15.263Z,102820.41
2022-12-19T01:22:45.205Z,102819.28
2022-12-19T01:25:16.260Z,102822.25
2022-12-19T01:27:45.895Z,102813.16
2022-12-19T01:30:15.382Z,102814.59
2022-12-19T01:32:46.351Z,102803.38
2022-12-19T01:35:21.487Z,102805.09
2022-12-19T01:37:52.205Z,102804.19
2022-12-19T01:40:37.733Z,102799.69
2022-12-19T01:43:08.031Z,102796.59
2022-12-19T01:45:43.605Z,102793.28
2022-12-19T01:48:22.496Z,102799.91
2022-12-19T01:51:02.700Z,102788.78
2022-12-19T01:53:43.745Z,102786.31
2022-12-19T01:56:20.793Z,102790.97
2022-12-19T01:58:57.960Z,102784.69
2022-12-19T02:01:50.919Z,102782.59
2022-12-19T02:04:32.478Z,102770.50
2022-12-19T02:07:09.346Z,102774.00
2022-12-19T02:09:47.695Z,102772.41
2022-12-19T02:12:24.492Z,102779.28
2022-12-19T02:14:57.417Z,102774.69
2022-12-19T02:17:40.134Z,102769.91
2022-12-19T02:20:39.024Z,102756.91
2022-12-19T02:23:28.178Z,102746.50
2022-12-19T02:26:18.321Z,102744.91
2022-12-19T02:29:07.152Z,102748.31
2022-12-19T02:31:48.728Z,102745.72
2022-12-19T02:34:23.970Z,102750.00
2022-12-19T02:37:08.938Z,102753.31
2022-12-19T02:39:46.753Z,102747.19
2022-12-19T02:42:22.530Z,102737.22
2022-12-19T02:44:54.961Z,102742.41
2022-12-19T02:47:26.645Z,102743.41
2022-12-19T02:49:57.608Z,102739.53
2022-12-19T02:52:49.099Z,102737.31
2022-12-19T02:55:23.226Z,102724.09
2022-12-19T02:58:39.955Z,102722.13
2022-12-19T03:01:19.445Z,102733.78
2022-12-19T03:04:02.964Z,102721.13
2022-12-19T03:06:38.146Z,102701.63
2022-12-19T03:09:15.407Z,102699.34
2022-12-19T03:11:47.937Z,102699.34
2022-12-19T03:14:22.247Z,102696.81
2022-12-19T03:16:56.218Z,102693.97
2022-12-19T03:19:27.306Z,102689.31
2022-12-19T03:21:56.710Z,102691.13
2022-12-19T03:24:27.251Z,102689.94
2022-12-19T03:27:00.873Z,102695.63
2022-12-19T03:29:35.382Z,102683.94
2022-12-19T03:36:30.152Z,102680.56
2022-12-19T03:39:01.235Z,102690.19
2022-12-19T03:41:49.173Z,102685.59
2022-12-19T03:44:22.141Z,102690.78
2022-12-19T03:46:59.560Z,102680.03
2022-12-19T03:49:29.335Z,102664.00
2022-12-19T03:52:04.521Z,102676.00
2022-12-19T03:54:37.817Z,102684.22
2022-12-19T03:57:13.988Z,102679.41
2022-12-19T03:59:50.393Z,102682.50
2022-12-19T04:02:22.257Z,102670.41
2022-12-19T04:04:58.614Z,102665.22
2022-12-19T04:07:29.971Z,102670.25
2022-12-19T04:10:05.109Z,102666.63
2022-12-19T04:12:37.840Z,102671.13
2022-12-19T04:15:09.137Z,102664.63
2022-12-19T04:17:43.617Z,102663.84
2022-12-19T04:20:15.222Z,102672.44
2022-12-19T04:22:52.827Z,102677.75
2022-12-19T04:25:29.512Z,102659.25
2022-12-19T04:28:02.713Z,102657.78
2022-12-19T04:30:36.508Z,102655.09
2022-12-19T04:33:06.441Z,102654.50
2022-12-19T04:35:37.889Z,102651.81
2022-12-19T04:38:08.668Z,102652.72
2022-12-19T04:40:41.501Z,102644.50
2022-12-19T04:43:11.334Z,102640.81
2022-12-19T04:45:43.224Z,102655.91
2022-12-19T04:48:12.622Z,102661.50
2022-12-19T04:50:42.071Z,102658.81
2022-12-19T04:53:13.027Z,102650.44
2022-12-19T04:55:42.677Z,102648.13
2022-12-19T04:58:16.313Z,102646.69
2022-12-19T05:00:48.625Z,102642.13
2022-12-19T05:03:17.880Z,102639.53
2022-12-19T05:05:47.469Z,102647.31
2022-12-19T05:08:18.031Z,102642.13
2022-12-19T05:10:47.586Z,102642.81
2022-12-19T05:13:16.720Z,102634.34
2022-12-19T05:15:46.311Z,102633.84
2022-12-19T05:18:16.548Z,102634.53
2022-12-19T05:20:49.371Z,102653.63
2022-12-19T05:23:20.101Z,102635.94
2022-12-19T05:25:49.953Z,102633.53
2022-12-19T05:28:19.513Z,102632.13
2022-12-19T05:30:52.306Z,102630.13
2022-12-19T05:33:21.904Z,102617.34
2022-12-19T05:35:51.327Z,102620.25
2022-12-19T05:38:21.982Z,102621.72
2022-12-19T05:40:51.513Z,102620.94
2022-12-19T05:43:20.674Z,102620.13
2022-12-19T05:45:50.240Z,102612.53
2022-12-19T05:48:19.376Z,102609.03
2022-12-19T05:50:51.979Z,102604.75
2022-12-19T05:53:25.985Z,102601.06
2022-12-19T05:56:03.843Z,102609.75
2022-12-19T05:58:33.602Z,102611.94
2022-12-19T06:01:07.439Z,102595.97
2022-12-19T06:03:36.889Z,102590.94
2022-12-19T06:06:08.519Z,102582.16
2022-12-19T06:08:39.544Z,102576.88
2022-12-19T06:11:10.830Z,102578.09
2022-12-19T06:13:40.943Z,102576.97
2022-12-19T06:16:12.923Z,102567.88
2022-12-19T06:18:45.130Z,102567.00
2022-12-19T06:21:16.990Z,102568.78
2022-12-19T06:23:48.464Z,102551.56
2022-12-19T06:26:20.437Z,102558.28
2022-12-19T06:28:50.900Z,102563.41
2022-12-19T06:31:22.070Z,102567.78
2022-12-19T06:33:51.650Z,102568.97
2022-12-19T06:36:23.455Z,102560.00
2022-12-19T06:38:55.235Z,102555.16
2022-12-19T06:41:42.196Z,102560.56
2022-12-19T06:44:15.174Z,102549.19
2022-12-19T06:46:45.229Z,102550.66
2022-12-19T06:49:14.334Z,102553.19
2022-12-19T06:51:44.377Z,102551.41
2022-12-19T06:54:15.957Z,102554.09
2022-12-19T06:56:46.032Z,102553.38
2022-12-19T06:59:17.596Z,102558.59
2022-12-19T07:01:58.006Z,102549.81
2022-12-19T07:04:31.997Z,102547.50
2022-12-19T07:07:02.593Z,102548.38
2022-12-19T07:09:34.802Z,102543.75
2022-12-19T07:12:04.678Z,102539.94
2022-12-19T07:14:33.829Z,102535.56
2022-12-19T07:17:05.130Z,102531.16
2022-12-19T07:19:35.321Z,102536.47
2022-12-19T07:22:06.908Z,102538.09
2022-12-19T07:24:38.367Z,102534.75
2022-12-19T07:27:08.545Z,102522.75
2022-12-19T07:29:37.723Z,102524.56
2022-12-19T07:32:07.281Z,102521.44
2022-12-19T07:34:36.525Z,102519.19
2022-12-19T07:37:06.840Z,102515.09
2022-12-19T07:39:37.593Z,102522.88
2022-12-19T07:42:07.233Z,102516.16
2022-12-19T07:44:41.194Z,102506.75
2022-12-19T07:47:10.849Z,102503.66
2022-12-19T07:49:40.068Z,102496.00
2022-12-19T07:52:09.664Z,102502.19
2022-12-19T07:54:41.025Z,102496.28
2022-12-19T07:57:10.581Z,102491.34
2022-12-19T07:59:39.731Z,102490.38
2022-12-19T08:02:09.431Z,102494.50
2022-12-19T08:04:38.874Z,102488.56
2022-12-19T08:07:08.446Z,102486.22
2022-12-19T08:09:39.341Z,102486.22
2022-12-19T08:12:09.134Z,102481.03
2022-12-19T08:14:38.536Z,102491.44
2022-12-19T08:17:23.266Z,102488.38
2022-12-19T08:19:53.428Z,102470.53
2022-12-19T08:22:23.067Z,102460.94
2022-12-19T08:24:55.926Z,102471.78
2022-12-19T08:27:25.621Z,102457.78
2022-12-19T08:29:55.226Z,102447.47
2022-12-19T08:32:24.766Z,102449.63
2022-12-19T08:34:54.785Z,102445.31
2022-12-19T08:37:24.422Z,102442.97
2022-12-19T08:39:55.263Z,102446.56
2022-12-19T08:42:24.959Z,102434.69
2022-12-19T08:44:54.310Z,102432.50
2022-12-19T08:47:23.747Z,102428.38
2022-12-19T08:49:53.014Z,102428.63
2022-12-19T08:52:22.431Z,102417.63
2022-12-19T08:54:51.796Z,102410.16
2022-12-19T08:57:22.634Z,102404.09
2022-12-19T08:59:52.150Z,102390.50
2022-12-19T09:02:22.146Z,102385.59
2022-12-19T09:05:57.825Z,102379.09
2022-12-19T09:07:42.418Z,102369.69
2022-12-19T09:10:11.997Z,102364.19
2022-12-19T09:12:44.704Z,102372.31
2022-12-19T09:15:14.297Z,102363.59
2022-12-19T09:17:43.623Z,102364.06
2022-12-19T09:20:22.808Z,102350.38
2022-12-19T09:22:53.500Z,102340.94
2022-12-19T09:25:23.129Z,102330.75
2022-12-19T09:28:26.268Z,102337.88
2022-12-19T09:30:45.077Z,102330.63
2022-12-19T09:33:14.502Z,102325.69
2022-12-19T09:35:52.454Z,102320.47
2022-12-19T09:38:25.427Z,102313.81
2022-12-19T09:41:07.811Z,102321.78
2022-12-19T09:43:50.809Z,102323.72
2022-12-19T09:46:23.083Z,102316.25
2022-12-19T09:48:58.392Z,102311.09
2022-12-19T09:51:36.741Z,102298.47
2022-12-19T09:54:12.904Z,102300.09
2022-12-19T09:56:46.498Z,102295.00
2022-12-19T09:59:32.363Z,102290.81
2022-12-19T10:02:33.267Z,102282.50
2022-12-19T10:05:19.688Z,102282.03
2022-12-19T10:08:08.475Z,102287.63
2022-12-19T10:12:43.486Z,102272.03
2022-12-19T10:13:57.252Z,102271.44
2022-12-19T10:16:37.391Z,102272.53
2022-12-19T10:19:10.570Z,102259.63
2022-12-19T10:22:17.054Z,102249.47
2022-12-19T10:25:08.921Z,102247.88
2022-12-19T10:27:57.353Z,102237.72
2022-12-19T10:30:32.306Z,102246.72
2022-12-19T10:33:20.729Z,102241.75
2022-12-19T10:36:02.222Z,102229.13
2022-12-19T10:38:39.321Z,102237.09
2022-12-19T10:41:19.469Z,102213.97
2022-12-19T10:43:58.106Z,102213.44
2022-12-19T10:46:39.183Z,102201.47
2022-12-19T10:49:21.789Z,102199.94
2022-12-19T10:52:02.546Z,102193.88
2022-12-19T10:54:44.186Z,102172.44
2022-12-19T10:57:24.524Z,102162.09
2022-12-19T10:59:58.572Z,102158.78
2022-12-19T11:02:44.897Z,102150.50
2022-12-19T11:05:28.615Z,102145.28
2022-12-19T11:08:18.675Z,102135.13
2022-12-19T11:13:04.117Z,102135.25
2022-12-19T11:17:24.254Z,102135.69
2022-12-19T11:23:35.107Z,102121.81
2022-12-19T11:29:27.068Z,102117.63
2022-12-19T11:29:45.792Z,102120.69
2022-12-19T11:30:37.766Z,102115.81
2022-12-19T11:30:41.126Z,102109.75
2022-12-19T11:34:15.023Z,102083.00
2022-12-19T11:36:50.855Z,102083.34
2022-12-19T11:39:27.368Z,102083.44
2022-12-19T11:42:02.282Z,102076.63
2022-12-19T11:44:40.250Z,102076.88
2022-12-19T11:47:21.608Z,102069.16
2022-12-19T11:49:59.091Z,102050.16
2022-12-19T11:55:40.752Z,102047.78
2022-12-19T11:58:12.430Z,102041.84
2022-12-19T12:00:50.484Z,102036.75
2022-12-19T12:03:58.316Z,102013.34
2022-12-19T12:06:35.585Z,102024.78
2022-12-19T12:14:20.108Z,102006.53
2022-12-19T12:19:34.189Z,102007.38
2022-12-19T12:29:15.676Z,102000.56
2022-12-19T12:31:04.928Z,101993.78
2022-12-19T12:31:10.130Z,101992.97
2022-12-19T12:31:47.163Z,101979.84
2022-12-19T12:31:57.404Z,101986.88
2022-12-19T12:32:05.581Z,101986.75
2022-12-19T12:35:46.219Z,101969.34
2022-12-19T12:39:33.600Z,101958.09
2022-12-19T12:42:17.519Z,101947.69
2022-12-19T12:44:51.775Z,101951.25
2022-12-19T12:47:24.622Z,101941.81
2022-12-19T12:49:58.629Z,101938.41
2022-12-19T12:52:35.460Z,101934.16
2022-12-19T12:55:06.609Z,101914.09
2022-12-19T12:57:39.358Z,101914.25
2022-12-19T13:00:25.635Z,101915.19
2022-12-19T13:03:05.860Z,101911.69
2022-12-19T13:06:30.983Z,101902.25
2022-12-19T13:09:25.954Z,101881.34
2022-12-19T13:12:18.796Z,101881.41
2022-12-19T13:14:50.597Z,101881.50
2022-12-19T13:17:46.172Z,101885.00
2022-12-19T13:20:44.462Z,101880.72
2022-12-19T13:23:33.754Z,101886.00
2022-12-19T13:26:02.800Z,101869.50
2022-12-19T13:28:42.014Z,101876.66
2022-12-19T13:31:36.794Z,101871.34
2022-12-19T13:34:19.522Z,101865.44
2022-12-19T13:39:49.477Z,101866.31
2022-12-19T13:40:12.250Z,101857.53
2022-12-19T13:43:12.474Z,101859.41
2022-12-19T13:45:48.878Z,101865.63
2022-12-19T13:48:27.446Z,101862.97
2022-12-19T13:50:59.811Z,101860.38
2022-12-19T13:53:31.419Z,101860.53
2022-12-19T13:56:03.351Z,101855.16
2022-12-19T13:58:36.059Z,101854.53
2022-12-19T14:01:21.045Z,101838.72
2022-12-19T14:03:54.303Z,101840.47
2022-12-19T14:06:28.313Z,101830.94
2022-12-19T14:11:25.901Z,101820.47
2022-12-19T14:13:40.215Z,101824.91
2022-12-19T14:15:13.138Z,101810.88
2022-12-19T14:17:49.881Z,101819.63
2022-12-19T14:22:02.715Z,101808.38
2022-12-19T14:23:14.840Z,101808.22
2022-12-19T14:28:17.072Z,101808.25
2022-12-19T14:28:54.912Z,101802.19
2022-12-19T14:31:24.893Z,101811.88
2022-12-19T14:34:19.104Z,101821.53
2022-12-19T14:36:51.261Z,101816.31
2022-12-19T14:39:29.157Z,101811.06
2022-12-19T14:42:31.769Z,101814.66
2022-12-19T14:52:34.685Z,101813.75
2022-12-19T14:53:34.037Z,101809.38
2022-12-19T14:54:20.819Z,101802.34
2022-12-19T14:56:02.117Z,101796.16
2022-12-19T14:58:33.727Z,101784.84
2022-12-19T15:01:10.982Z,101791.09
2022-12-19T15:03:24.630Z,101797.22
2022-12-19T15:07:05.297Z,101787.59
2022-12-19T15:10:58.287Z,101775.50
2022-12-19T15:14:48.854Z,101776.41
2022-12-19T15:15:18.723Z,101774.47
2022-12-19T15:17:50.697Z,101769.25
2022-12-19T15:20:20.525Z,101755.34
2022-12-19T15:22:51.911Z,101749.31
2022-12-19T15:26:01.393Z,101750.34
2022-12-19T15:28:16.926Z,101738.00
2022-12-19T15:30:51.705Z,101744.97
2022-12-19T15:33:21.762Z,101744.97
2022-12-19T15:35:51.349Z,101729.34
2022-12-19T15:38:20.846Z,101718.94
2022-12-19T15:40:50.473Z,101719.81
2022-12-19T15:44:01.831Z,101719.91
2022-12-19T15:46:14.497Z,101723.38
2022-12-19T15:48:50.437Z,101721.66
2022-12-19T15:51:20.014Z,101723.53
2022-12-19T15:53:49.144Z,101726.00
2022-12-19T15:56:28.860Z,101720.84
2022-12-19T15:59:02.921Z,101720.06
2022-12-19T16:01:34.254Z,101712.34
2022-12-19T16:04:05.001Z,101706.97
2022-12-19T16:06:34.702Z,101705.38
2022-12-19T16:09:04.085Z,101705.38
2022-12-19T16:11:33.620Z,101701.06
2022-12-19T16:14:04.154Z,101695.78
2022-12-19T16:16:33.580Z,101697.59
2022-12-19T16:19:02.823Z,101706.31
2022-12-19T16:21:34.545Z,101703.69
2022-12-19T16:24:04.941Z,101709.06
2022-12-19T16:26:39.019Z,101701.16
2022-12-19T16:29:18.311Z,101702.09
2022-12-19T16:31:48.052Z,101687.22
2022-12-19T16:34:19.400Z,101681.13
2022-12-19T16:36:49.552Z,101665.50
2022-12-19T16:39:19.448Z,101659.34
2022-12-19T16:41:49.159Z,101659.47
2022-12-19T16:44:21.824Z,101651.69
2022-12-19T16:46:52.990Z,101648.06
2022-12-19T16:49:23.894Z,101645.63
2022-12-19T16:51:54.263Z,101651.75
2022-12-19T16:54:23.369Z,101657.88
2022-12-19T16:56:55.270Z,101642.13
2022-12-19T16:59:32.005Z,101647.44
2022-12-19T17:02:02.224Z,101636.88
2022-12-19T17:04:31.327Z,101643.16
2022-12-19T17:07:01.141Z,101629.94
2022-12-19T17:09:30.540Z,101642.22
2022-12-19T17:12:02.509Z,101631.72
2022-12-19T17:14:33.973Z,101631.78
2022-12-19T17:17:03.552Z,101634.47
2022-12-19T17:19:38.097Z,101624.97
2022-12-19T17:22:14.221Z,101624.13
2022-12-19T17:24:44.913Z,101608.34
2022-12-19T17:27:17.296Z,101602.19
2022-12-19T17:29:47.953Z,101594.34
2022-12-19T17:32:23.560Z,101608.34
2022-12-19T17:34:54.097Z,101589.06
2022-12-19T17:37:23.917Z,101580.38
2022-12-19T17:39:53.231Z,101570.81
2022-12-19T17:42:24.601Z,101572.53
2022-12-19T17:44:55.686Z,101562.09
2022-12-19T17:47:25.729Z,101566.59
2022-12-19T17:49:54.917Z,101551.66
2022-12-19T17:52:24.346Z,101545.47
2022-12-19T17:54:53.471Z,101546.41
2022-12-19T17:57:23.235Z,101553.47
2022-12-19T17:59:52.370Z,101550.00
2022-12-19T18:02:25.889Z,101542.13
2022-12-19T18:04:58.526Z,101548.38
2022-12-19T18:07:28.062Z,101545.75
2022-12-19T18:09:57.291Z,101547.47
2022-12-19T18:12:26.984Z,101545.75
2022-12-19T18:14:56.134Z,101547.59
2022-12-19T18:17:27.517Z,101537.09
2022-12-19T18:19:56.978Z,101524.03
2022-12-19T18:22:26.399Z,101525.81
2022-12-19T18:24:56.441Z,101522.25
2022-12-19T18:27:25.989Z,101513.59
2022-12-19T18:29:55.773Z,101505.69
2022-12-19T18:32:26.339Z,101495.16
2022-12-19T18:34:55.505Z,101504.78
2022-12-19T18:37:24.955Z,101491.63
2022-12-19T18:39:55.862Z,101495.22
2022-12-19T18:42:25.382Z,101489.03
2022-12-19T18:44:54.527Z,101473.25
2022-12-19T18:47:26.621Z,101466.31
2022-12-19T18:49:55.921Z,101465.50
2022-12-19T18:52:25.963Z,101453.34
2022-12-19T18:54:55.044Z,101448.00
2022-12-19T18:57:24.672Z,101450.63
2022-12-19T18:59:53.944Z,101434.00
2022-12-19T19:02:28.947Z,101427.91
2022-12-19T19:04:59.379Z,101425.28
2022-12-19T19:07:29.168Z,101414.84
2022-12-19T19:09:58.298Z,101419.28
2022-12-19T19:12:52.855Z,101413.09
2022-12-19T19:15:24.616Z,101413.97
2022-12-19T19:18:02.933Z,101412.28
2022-12-19T19:20:36.267Z,101404.41
2022-12-19T19:23:09.873Z,101400.06
2022-12-19T19:25:41.038Z,101393.94
2022-12-19T19:28:10.644Z,101396.59
2022-12-19T19:30:41.505Z,101386.16
2022-12-19T19:33:20.992Z,101368.50
2022-12-19T19:35:53.806Z,101375.56
2022-12-19T19:38:25.720Z,101378.28
2022-12-19T19:40:55.007Z,101373.91
2022-12-19T19:43:24.422Z,101367.84
2022-12-19T19:45:53.753Z,101373.03
2022-12-19T19:48:24.574Z,101384.44
2022-12-19T19:50:53.820Z,101370.38
2022-12-19T19:53:23.658Z,101368.75
2022-12-19T19:55:59.497Z,101355.63
2022-12-19T19:58:32.762Z,101359.97
2022-12-19T20:01:08.502Z,101347.75
2022-12-19T20:03:41.947Z,101352.06
2022-12-19T20:06:13.550Z,101349.53
2022-12-19T20:08:42.962Z,101353.06
2022-12-19T20:11:12.363Z,101343.41
2022-12-19T20:13:41.811Z,101335.56
2022-12-19T20:16:13.317Z,101329.47
2022-12-19T20:18:48.847Z,101335.66
2022-12-19T20:21:19.815Z,101327.78
2022-12-19T20:23:50.344Z,101334.00
2022-12-19T20:26:20.270Z,101321.69
2022-12-19T20:28:51.470Z,101323.47
2022-12-19T20:31:22.816Z,101311.22
2022-12-19T20:33:56.239Z,101310.34
2022-12-19T20:36:26.295Z,101306.03
2022-12-19T20:38:55.901Z,101292.09
2022-12-19T20:41:25.139Z,101300.84
2022-12-19T20:43:55.113Z,101292.06
2022-12-19T20:46:25.236Z,101298.22
2022-12-19T20:48:56.505Z,101290.34
2022-12-19T20:51:27.767Z,101293.00
2022-12-19T20:53:56.900Z,101269.38
2022-12-19T20:56:26.234Z,101267.63
2022-12-19T20:58:56.042Z,101272.97
2022-12-19T21:01:26.710Z,101262.41
2022-12-19T21:03:58.365Z,101264.19
2022-12-19T21:06:27.909Z,101262.47
2022-12-19T21:08:58.079Z,101255.47
2022-12-19T21:11:28.263Z,101243.22
2022-12-19T21:13:58.132Z,101241.50
2022-12-19T21:16:27.361Z,101241.53
2022-12-19T21:18:58.408Z,101238.03
2022-12-19T21:21:29.266Z,101233.72
2022-12-19T21:23:58.705Z,101229.41
2022-12-19T21:26:27.844Z,101234.66
2022-12-19T21:28:59.403Z,101229.41
2022-12-19T21:31:31.294Z,101217.19
2022-12-19T21:34:03.785Z,101220.66
2022-12-19T21:36:33.570Z,101220.72
2022-12-19T21:39:03.189Z,101211.09
2022-12-19T21:41:33.488Z,101210.25
2022-12-19T21:44:03.064Z,101209.44
2022-12-19T21:46:34.048Z,101200.66
2022-12-19T21:49:05.172Z,101201.56
2022-12-19T21:51:34.411Z,101204.19
2022-12-19T21:54:07.018Z,101203.34
2022-12-19T21:56:38.968Z,101198.13
2022-12-19T21:59:11.968Z,101194.66
2022-12-19T22:01:42.379Z,101194.66
2022-12-19T22:04:15.907Z,101179.78
2022-12-19T22:06:45.468Z,101173.66
2022-12-19T22:09:18.183Z,101178.13
2022-12-19T22:11:48.959Z,101179.00
2022-12-19T22:14:19.221Z,101165.84
2022-12-19T22:16:48.570Z,101165.00
2022-12-19T22:19:20.354Z,101165.03
2022-12-19T22:21:49.753Z,101156.25
2022-12-19T22:24:20.090Z,101159.75
2022-12-19T22:26:49.568Z,101156.31
2022-12-19T22:29:19.350Z,101143.16
2022-12-19T22:31:49.861Z,101146.69
2022-12-19T22:34:22.471Z,101135.28
2022-12-19T22:36:51.827Z,101143.19
2022-12-19T22:39:22.527Z,101136.22
2022-12-19T22:41:52.519Z,101128.31
2022-12-19T22:44:22.649Z,101126.56
2022-12-19T22:46:52.112Z,101127.44
2022-12-19T22:49:22.969Z,101115.19
2022-12-19T22:51:52.209Z,101116.06
2022-12-19T22:54:21.648Z,101112.56
2022-12-19T22:56:52.289Z,101116.09
2022-12-19T22:59:22.136Z,101121.34
2022-12-19T23:01:51.524Z,101109.94
2022-12-19T23:04:22.733Z,101110.84
2022-12-19T23:06:52.351Z,101106.47
2022-12-19T23:09:21.790Z,101109.13
2022-12-19T23:11:51.507Z,101094.22
2022-12-19T23:14:21.906Z,101098.59
2022-12-19T23:16:51.295Z,101088.06
2022-12-19T23:19:22.283Z,101072.25
2022-12-19T23:21:51.729Z,101078.41
2022-12-19T23:24:21.107Z,101080.19
2022-12-19T23:26:50.991Z,101073.13
2022-12-19T23:29:20.404Z,101078.41
2022-12-19T23:31:49.715Z,101069.66
2022-12-19T23:34:19.851Z,101076.66
2022-12-19T23:39:39.865Z,101054.69
2022-12-19T23:42:09.407Z,101060.00
2022-12-19T23:44:39.244Z,101052.06
2022-12-19T23:47:08.492Z,101048.56
2022-12-19T23:49:37.953Z,101044.16
2022-12-19T23:52:08.698Z,101047.69
2022-12-19T23:54:38.405Z,101037.13
2022-12-19T23:57:07.724Z,101037.13
2022-12-19T23:59:37.268Z,101040.66
